createdAt,value
2022-08-17T00:00:16.575Z,7.97
2022-08-17T00:05:08.005Z,7.28
2022-08-17T00:10:07.750Z,7.50
2022-08-17T00:15:10.466Z,7.35
2022-08-17T00:20:08.511Z,7.10
2022-08-17T00:25:08.223Z,8.85
2022-08-17T00:30:08.003Z,8.90
2022-08-17T00:35:07.680Z,8.30
2022-08-17T00:40:08.542Z,8.88
2022-08-17T00:45:08.311Z,8.50
2022-08-17T00:50:08.052Z,8.60
2022-08-17T00:55:07.799Z,7.65
2022-08-17T01:00:08.504Z,8.23
2022-08-17T01:05:08.272Z,8.38
2022-08-17T01:10:08.026Z,6.95
2022-08-17T01:15:08.465Z,6.75
2022-08-17T01:20:08.171Z,7.38
2022-08-17T01:25:07.874Z,7.43
2022-08-17T01:30:57.851Z,7.32
2022-08-17T01:35:08.058Z,8.32
2022-08-17T01:40:07.773Z,6.93
2022-08-17T01:45:08.561Z,6.85
2022-08-17T01:50:08.271Z,8.13
2022-08-17T01:55:07.971Z,7.68
2022-08-17T02:00:07.670Z,7.25
2022-08-17T02:05:08.363Z,7.70
2022-08-17T02:10:20.001Z,9.02
2022-08-17T02:15:08.090Z,8.68
2022-08-17T02:20:07.854Z,8.98
2022-08-17T02:25:08.571Z,8.73
2022-08-17T02:31:00.718Z,8.18
2022-08-17T02:35:08.062Z,9.18
2022-08-17T02:40:07.820Z,9.50
2022-08-17T02:45:08.639Z,9.50
2022-08-17T02:50:08.362Z,8.95
2022-08-17T02:55:08.100Z,8.10
2022-08-17T03:00:07.792Z,9.50
2022-08-17T03:05:08.507Z,11.02
2022-08-17T03:10:08.229Z,9.27
2022-08-17T03:15:07.906Z,9.43
2022-08-17T03:20:08.596Z,9.63
2022-08-17T03:25:10.638Z,9.57
2022-08-17T03:30:08.561Z,12.23
2022-08-17T03:35:08.282Z,9.45
2022-08-17T03:40:08.080Z,11.20
2022-08-17T03:45:07.804Z,12.65
2022-08-17T03:50:18.496Z,0
2022-08-17T03:55:08.155Z,10.95
2022-08-17T04:00:07.856Z,12.57
2022-08-17T04:05:02.647Z,10.70
2022-08-17T04:10:02.555Z,11.77
2022-08-17T04:15:02.525Z,12.07
2022-08-17T04:20:02.331Z,13.60
2022-08-17T04:25:02.166Z,11.73
2022-08-17T04:30:02.317Z,12.45
2022-08-17T04:35:02.149Z,10.10
2022-08-17T04:40:04.068Z,11.52
2022-08-17T04:45:02.293Z,11.10
2022-08-17T04:50:02.159Z,10.90
2022-08-17T04:55:01.976Z,11.55
2022-08-17T05:00:01.856Z,10.40
2022-08-17T05:05:01.915Z,10.27
2022-08-17T05:10:02.884Z,10.57
2022-08-17T05:15:02.871Z,8.80
2022-08-17T05:20:02.887Z,8.63
2022-08-17T05:25:02.869Z,10.07
2022-08-17T05:30:02.785Z,10.45
2022-08-17T05:35:02.756Z,12.48
2022-08-17T05:40:02.740Z,11.70
2022-08-17T05:45:02.735Z,10.20
2022-08-17T05:50:02.563Z,9.70
2022-08-17T05:55:12.430Z,0
2022-08-17T06:00:02.210Z,9.80
2022-08-17T06:05:02.044Z,10.65
2022-08-17T06:10:01.874Z,10.43
2022-08-17T06:15:02.715Z,10.75
2022-08-17T06:20:02.649Z,9.63
2022-08-17T06:25:04.190Z,8.38
2022-08-17T06:30:08.390Z,8.38
2022-08-17T06:35:02.268Z,7.85
2022-08-17T06:40:02.207Z,7.47
2022-08-17T06:45:02.159Z,7.35
2022-08-17T06:50:02.046Z,6.90
2022-08-17T06:55:01.952Z,7.10
2022-08-17T07:00:01.757Z,6.60
2022-08-17T07:05:02.630Z,7.38
2022-08-17T07:10:02.486Z,7.00
2022-08-17T07:15:12.341Z,0
2022-08-17T07:20:02.389Z,7.30
2022-08-17T07:25:02.345Z,6.70
2022-08-17T07:30:05.641Z,8.02
2022-08-17T07:35:02.030Z,7.80
2022-08-17T07:40:15.314Z,7.55
2022-08-17T07:45:02.420Z,7.75
2022-08-17T07:50:02.362Z,7.35
2022-08-17T07:55:02.402Z,6.93
2022-08-17T08:00:03.178Z,6.95
2022-08-17T08:05:02.569Z,8.48
2022-08-17T08:10:02.488Z,7.68
2022-08-17T08:15:02.445Z,6.97
2022-08-17T08:20:51.432Z,5.38
2022-08-17T08:25:02.559Z,6.30
2022-08-17T08:30:03.015Z,5.82
2022-08-17T08:35:05.617Z,6.03
2022-08-17T08:40:12.607Z,0
2022-08-17T08:45:04.557Z,8.15
2022-08-17T08:50:04.380Z,8.77
2022-08-17T08:55:02.058Z,10.40
2022-08-17T09:00:01.991Z,10.60
2022-08-17T09:05:15.011Z,8.35
2022-08-17T09:10:02.567Z,7.72
2022-08-17T09:15:02.520Z,8.85
2022-08-17T09:20:02.341Z,8.25
2022-08-17T09:25:02.163Z,9.55
2022-08-17T09:30:02.039Z,8.38
2022-08-17T09:35:01.999Z,7.95
2022-08-17T09:40:02.343Z,8.60
2022-08-17T09:45:04.170Z,7.53
2022-08-17T09:50:02.042Z,8.02
2022-08-17T09:55:01.914Z,8.45
2022-08-17T10:00:12.680Z,0
2022-08-17T10:05:02.616Z,8.15
2022-08-17T10:10:02.583Z,9.27
2022-08-17T10:15:07.919Z,9.48
2022-08-17T10:20:02.192Z,10.25
2022-08-17T10:25:22.236Z,8.70
2022-08-17T10:30:02.692Z,10.10
2022-08-17T10:35:02.724Z,8.93
2022-08-17T10:40:02.838Z,10.85
2022-08-17T10:45:02.851Z,10.30
2022-08-17T10:50:02.810Z,10.90
2022-08-17T10:55:02.801Z,10.48
2022-08-17T11:00:10.229Z,9.20
2022-08-17T11:05:03.269Z,9.65
2022-08-17T11:10:02.368Z,9.68
2022-08-17T11:15:02.171Z,10.68
2022-08-17T11:20:02.027Z,11.95
2022-08-17T11:25:01.874Z,11.38
2022-08-17T11:30:02.999Z,11.65
2022-08-17T11:35:01.872Z,10.35
2022-08-17T11:40:02.763Z,11.10
2022-08-17T11:45:02.571Z,11.77
2022-08-17T11:50:02.368Z,12.23
2022-08-17T11:55:24.163Z,11.88
2022-08-17T12:00:02.583Z,11.52
2022-08-17T12:05:02.404Z,13.15
2022-08-17T12:10:02.204Z,13.88
2022-08-17T12:15:11.056Z,14.88
2022-08-17T12:20:03.030Z,16.88
2022-08-17T12:25:12.363Z,0
2022-08-17T12:30:02.127Z,17.50
2022-08-17T12:35:01.872Z,18.63
2022-08-17T12:40:02.634Z,18.27
2022-08-17T12:45:02.481Z,21.27
2022-08-17T12:50:02.386Z,21.00
2022-08-17T12:55:02.347Z,21.77
2022-08-17T13:00:02.277Z,24.33
2022-08-17T13:05:02.251Z,26.70
2022-08-17T13:10:02.140Z,23.92
2022-08-17T13:15:02.071Z,22.13
2022-08-17T13:20:01.995Z,21.58
2022-08-17T13:25:01.921Z,20.13
2022-08-17T13:30:02.900Z,23.27
2022-08-17T13:35:15.406Z,20.30
2022-08-17T13:40:02.411Z,21.10
2022-08-17T13:45:02.648Z,20.50
2022-08-17T13:50:02.600Z,19.85
2022-08-17T13:55:02.563Z,18.50
2022-08-17T14:00:02.361Z,18.15
2022-08-17T14:05:02.162Z,17.98
2022-08-17T14:10:02.513Z,17.67
2022-08-17T14:15:02.412Z,17.77
2022-08-17T14:20:02.186Z,17.05
2022-08-17T14:25:02.053Z,18.30
2022-08-17T14:30:01.958Z,19.88
2022-08-17T14:35:01.959Z,19.27
2022-08-17T14:40:01.909Z,18.02
2022-08-17T14:45:05.181Z,17.85
2022-08-17T14:50:01.945Z,18.45
2022-08-17T14:55:02.821Z,15.85
2022-08-17T15:00:02.639Z,18.33
2022-08-17T15:05:02.484Z,17.20
2022-08-17T15:10:02.765Z,21.55
2022-08-17T15:15:01.715Z,16.35
2022-08-17T15:20:02.485Z,16.80
2022-08-17T15:25:02.330Z,20.50
2022-08-17T15:30:02.123Z,17.80
2022-08-17T15:35:01.958Z,18.73
2022-08-17T15:40:02.024Z,15.27
2022-08-17T15:45:01.938Z,14.27
2022-08-17T15:50:02.837Z,18.73
2022-08-17T15:55:02.657Z,15.60
2022-08-17T16:00:02.599Z,16.08
2022-08-17T16:05:02.602Z,19.65
2022-08-17T16:10:02.530Z,17.80
2022-08-17T16:15:02.482Z,17.95
2022-08-17T16:20:02.392Z,16.42
2022-08-17T16:25:02.227Z,18.88
2022-08-17T16:30:02.136Z,15.30
2022-08-17T16:35:02.118Z,16.58
2022-08-17T16:40:01.957Z,18.30
2022-08-17T16:45:01.829Z,19.02
2022-08-17T16:50:02.697Z,18.23
2022-08-17T16:55:02.597Z,18.38
2022-08-17T17:00:02.326Z,17.50
2022-08-17T17:05:12.142Z,0
2022-08-17T17:10:01.938Z,16.65
2022-08-17T17:15:02.793Z,19.27
2022-08-17T17:20:02.685Z,18.08
2022-08-17T17:25:02.475Z,18.48
2022-08-17T17:30:02.341Z,24.02
2022-08-17T17:35:02.149Z,18.77
2022-08-17T17:40:02.067Z,21.08
2022-08-17T17:45:11.874Z,0
2022-08-17T17:50:02.861Z,16.35
2022-08-17T17:55:02.663Z,17.33
2022-08-17T18:00:02.523Z,15.95
2022-08-17T18:05:02.400Z,19.70
2022-08-17T18:10:02.158Z,17.33
2022-08-17T18:15:12.591Z,0
2022-08-17T18:20:02.401Z,19.20
2022-08-17T18:25:02.203Z,18.88
2022-08-17T18:30:05.855Z,16.55
2022-08-17T18:35:01.874Z,16.10
2022-08-17T18:40:02.898Z,17.02
2022-08-17T18:45:02.916Z,14.95
2022-08-17T18:50:02.246Z,15.52
2022-08-17T18:55:12.173Z,0
2022-08-17T19:00:02.212Z,17.15
2022-08-17T19:05:02.087Z,17.60
2022-08-17T19:10:02.001Z,16.85
2022-08-17T19:15:01.848Z,16.75
2022-08-17T19:20:02.646Z,19.00
2022-08-17T19:25:03.736Z,18.75
2022-08-17T19:30:07.563Z,21.80
2022-08-17T19:35:02.156Z,22.02
2022-08-17T19:40:02.111Z,22.70
2022-08-17T19:45:02.031Z,25.42
2022-08-17T19:50:01.867Z,20.20
2022-08-17T19:55:02.678Z,21.83
2022-08-17T20:00:02.520Z,20.40
2022-08-17T20:05:02.372Z,20.48
2022-08-17T20:10:02.180Z,21.70
2022-08-17T20:15:11.996Z,0
2022-08-17T20:20:01.791Z,21.83
2022-08-17T20:25:02.576Z,22.27
2022-08-17T20:30:02.376Z,20.45
2022-08-17T20:35:15.016Z,21.80
2022-08-17T20:40:07.876Z,22.00
2022-08-17T20:45:08.597Z,21.67
2022-08-17T20:50:08.302Z,22.67
2022-08-17T20:55:08.035Z,24.73
2022-08-17T21:00:15.865Z,22.15
2022-08-17T21:05:08.569Z,20.50
2022-08-17T21:10:08.554Z,22.60
2022-08-17T21:15:08.268Z,24.42
2022-08-17T21:20:11.513Z,23.10
2022-08-17T21:25:07.963Z,22.30
2022-08-17T21:30:10.263Z,21.90
2022-08-17T21:35:08.570Z,22.65
2022-08-17T21:40:08.349Z,24.38
2022-08-17T21:45:08.133Z,21.70
2022-08-17T21:50:07.867Z,20.27
2022-08-17T21:55:08.580Z,24.02
2022-08-17T22:00:08.310Z,21.70
2022-08-17T22:05:08.005Z,22.80
2022-08-17T22:10:07.713Z,22.23
2022-08-17T22:15:08.421Z,24.90
2022-08-17T22:20:08.093Z,22.35
2022-08-17T22:25:07.790Z,22.17
2022-08-17T22:30:08.513Z,22.13
2022-08-17T22:35:18.185Z,0
2022-08-17T22:40:07.959Z,20.90
2022-08-17T22:45:07.644Z,22.40
2022-08-17T22:50:08.384Z,22.23
2022-08-17T22:55:09.303Z,24.02
2022-08-17T23:01:00.395Z,23.73
2022-08-17T23:05:08.145Z,23.92
2022-08-17T23:10:07.847Z,23.95
2022-08-17T23:15:07.724Z,20.98
2022-08-17T23:20:08.583Z,24.30
2022-08-17T23:25:08.296Z,25.80
2022-08-17T23:30:07.982Z,23.13
2022-08-17T23:35:07.916Z,25.98
2022-08-17T23:40:08.733Z,27.60
2022-08-17T23:45:08.492Z,27.88
2022-08-17T23:50:08.194Z,29.50
2022-08-17T23:55:07.966Z,28.20
